Impacts TAF Board
For situational awareness. Not to be used for flight planning purposes.
IDs:

KLAS - Las Vegas/McCarran I, NV, US

Issued at 2320 UTC 18 Nov 2018
Updated at 2323 UTC 18 Nov 2018
Potential Impact None Slight Moderate High
Time2256Z 19/00Z 19/01Z 19/02Z 19/03Z 19/04Z 19/05Z 19/06Z 19/07Z 19/08Z 19/09Z 19/10Z 19/11Z 19/12Z>>
Type OBS PRVL PRVL PRVL PRVL PRVL PRVL PRVL PRVL PRVL PRVL PRVL PRVL PRVL
VIS 10 >6 >6 >6 >6 >6 >6 >6 >6 >6 >6 >6 >6 >6
CIG -- -- -- -- -- -- -- -- -- -- -- -- -- --
Cover FEW FEW FEW FEW FEW FEW FEW FEW FEW FEW FEW FEW FEW FEW
FltCat VFR VFR VFR VFR VFR VFR VFR VFR VFR VFR VFR VFR VFR VFR
WX -- -- -- -- -- -- -- -- -- -- -- -- -- --
WDir 50 VRB VRB VRB 220 220 220 220 220 220 220 220 220 220
WSpd 4 5 5 5 6 6 6 6 6 6 6 6 6 6
WGst -- -- -- -- -- -- -- -- -- -- -- -- -- --
Raw TAF
KLAS 182320Z 1900/2006 VRB05KT P6SM FEW250
  FM190300 22006KT P6SM FEW250
  FM191800 08005KT P6SM SCT250
  FM200200 22006KT P6SM BKN200


Raw METAR
KLAS 182256Z 05004KT 10SM FEW250 18/M03 A3011 RMK AO2 SLP188 T01831033
KLAS 182156Z VRB04KT 10SM FEW250 18/M03 A3011 RMK AO2 SLP190 T01781033
KLAS 182056Z 02004KT 10SM FEW250 18/M03 A3013 RMK AO2 SLP195 T01781028 58026

METAR Board
Radar Display
Forecast Discussion
For situational awareness. Not to be used for flight planning purposes.